Cohoctah, Michigan
Current Conditions -  °F | °C
As of 12:55 PM on Friday 21 Nov 2014 (Local Time) from KOZW Reporting Station
Clear Clear  
Wind Chill: 12°   Ceiling: Unl
Heat Index: 23°   Visibility: 10mi
Dew Point:   Wind: 10mph
Humidity: 56%   Direction: 260°W
Pressure: 30.43"   Gusts: NA
Location:  42.76°N, 83.95°W
Report Text: KOZW 211755Z AUTO 26009KT 10SM CLR M05/M13 A3043 RMK AO2 T10521127 11048 21148
Loading
Personal Weather Stations






























Interactive Weather Map New forecast layout! Learn more

10-Day Weather Forecast

Advertisements
Track Severe Weather on mobile